createdAt,value
2019-03-19T00:00:15.167Z,101376.61
2019-03-19T00:02:43.880Z,101379.91
2019-03-19T00:05:12.413Z,101380.00
2019-03-19T00:07:40.849Z,101377.59
2019-03-19T00:10:09.913Z,101381.24
2019-03-19T00:12:38.320Z,101386.63
2019-03-19T00:15:11.380Z,101384.30
2019-03-19T00:17:39.833Z,101388.84
2019-03-19T00:20:13.679Z,101390.48
2019-03-19T00:22:42.084Z,101393.77
2019-03-19T00:25:10.697Z,101396.19
2019-03-19T00:27:39.281Z,101399.13
2019-03-19T00:30:15.730Z,101399.22
2019-03-19T00:32:44.345Z,101402.94
2019-03-19T00:35:13.420Z,101398.27
2019-03-19T00:37:41.870Z,101401.61
2019-03-19T00:40:12.537Z,101401.80
2019-03-19T00:42:41.017Z,101411.48
2019-03-19T00:45:11.650Z,101410.96
2019-03-19T00:47:40.064Z,101409.83
2019-03-19T00:50:11.073Z,101411.11
2019-03-19T00:52:39.486Z,101408.42
2019-03-19T00:55:08.975Z,101417.56
2019-03-19T00:57:37.502Z,101409.21
2019-03-19T01:00:17.425Z,101408.18
2019-03-19T01:02:45.931Z,101412.80
2019-03-19T01:05:14.850Z,101414.16
2019-03-19T01:07:43.456Z,101424.97
2019-03-19T01:10:16.994Z,101427.48
2019-03-19T01:12:44.567Z,101416.21
2019-03-19T01:15:13.838Z,101410.56
2019-03-19T01:17:42.331Z,101412.84
2019-03-19T01:20:12.947Z,101415.86
2019-03-19T01:22:41.422Z,101413.58
2019-03-19T01:25:10.707Z,101411.84
2019-03-19T01:27:39.287Z,101410.41
2019-03-19T01:30:13.261Z,101410.36
2019-03-19T01:32:41.692Z,101407.70
2019-03-19T01:35:10.122Z,101406.58
2019-03-19T01:37:38.523Z,101401.72
2019-03-19T01:40:09.575Z,101407.67
2019-03-19T01:42:38.056Z,101395.40
2019-03-19T01:45:09.007Z,101401.73
2019-03-19T01:47:37.413Z,101402.89
2019-03-19T01:50:08.661Z,101395.20
2019-03-19T01:52:37.105Z,101399.06
2019-03-19T01:55:08.749Z,101412.23
2019-03-19T01:57:37.362Z,101402.66
2019-03-19T02:00:08.776Z,101404.70
2019-03-19T02:02:37.493Z,101411.03
2019-03-19T02:05:06.471Z,101407.59
2019-03-19T02:07:35.162Z,101404.08
2019-03-19T02:10:04.954Z,101412.22
2019-03-19T02:12:35.605Z,101409.30
2019-03-19T02:15:04.004Z,101420.83
2019-03-19T02:17:32.456Z,101420.17
2019-03-19T02:20:01.103Z,101415.92
2019-03-19T02:22:29.552Z,101415.84
2019-03-19T02:24:58.154Z,101421.92
2019-03-19T02:27:26.619Z,101424.39
2019-03-19T02:29:55.198Z,101427.71
2019-03-19T02:32:23.752Z,101428.48
2019-03-19T02:34:52.168Z,101423.55
2019-03-19T02:37:20.684Z,101422.64
2019-03-19T02:39:49.249Z,101425.11
2019-03-19T02:42:17.740Z,101421.48
2019-03-19T02:44:46.243Z,101421.91
2019-03-19T02:47:14.712Z,101418.55
2019-03-19T02:49:43.246Z,101430.31
2019-03-19T02:52:11.699Z,101432.57
2019-03-19T02:54:40.219Z,101436.73
2019-03-19T02:57:08.725Z,101436.84
2019-03-19T02:59:37.177Z,101431.30
2019-03-19T03:02:05.774Z,101438.27
2019-03-19T03:04:34.235Z,101439.55
2019-03-19T03:07:02.824Z,101436.56
2019-03-19T03:09:31.395Z,101431.41
2019-03-19T03:11:59.992Z,101443.30
2019-03-19T03:14:28.464Z,101442.98
2019-03-19T03:16:56.912Z,101453.61
2019-03-19T03:19:25.480Z,101456.02
2019-03-19T03:21:53.914Z,101465.27
2019-03-19T03:24:22.412Z,101464.09
2019-03-19T03:26:50.865Z,101458.45
2019-03-19T03:29:19.336Z,101464.85
2019-03-19T03:31:47.797Z,101469.05
2019-03-19T03:34:16.293Z,101476.66
2019-03-19T03:36:44.859Z,101476.52
2019-03-19T03:39:13.275Z,101484.22
2019-03-19T03:41:41.673Z,101485.91
2019-03-19T03:44:10.121Z,101492.32
2019-03-19T03:46:38.572Z,101496.41
2019-03-19T03:49:09.819Z,101494.02
2019-03-19T03:51:41.667Z,101498.41
2019-03-19T03:54:09.796Z,101505.65
2019-03-19T03:56:38.240Z,101512.91
2019-03-19T03:59:06.842Z,101514.25
2019-03-19T04:01:35.265Z,101517.44
2019-03-19T04:04:03.673Z,101523.77
2019-03-19T04:06:32.332Z,101536.43
2019-03-19T04:09:00.747Z,101532.70
2019-03-19T04:11:29.535Z,101529.69
2019-03-19T04:13:58.092Z,101531.91
2019-03-19T04:16:26.685Z,101534.53
2019-03-19T04:18:55.220Z,101542.11
2019-03-19T04:24:02.900Z,101538.24
2019-03-19T04:26:31.317Z,101536.61
2019-03-19T04:28:59.856Z,101544.48
2019-03-19T04:31:28.384Z,101550.53
2019-03-19T04:33:56.968Z,101553.86
2019-03-19T04:36:25.529Z,101564.89
2019-03-19T04:38:54.134Z,101567.05
2019-03-19T04:41:22.570Z,101574.83
2019-03-19T04:43:48.760Z,101575.70
2019-03-19T04:46:14.723Z,101572.48
2019-03-19T04:48:41.060Z,101583.72
2019-03-19T04:51:07.020Z,101578.52
2019-03-19T04:53:32.990Z,101586.67
2019-03-19T04:55:58.815Z,101598.22
2019-03-19T04:58:24.604Z,101596.95
2019-03-19T05:00:50.675Z,101595.73
2019-03-19T05:03:16.681Z,101604.56
2019-03-19T05:05:42.841Z,101603.91
2019-03-19T05:08:08.753Z,101593.27
2019-03-19T05:10:34.574Z,101604.81
2019-03-19T05:13:00.899Z,101609.59
2019-03-19T05:15:27.215Z,101605.52
2019-03-19T05:17:53.071Z,101608.87
2019-03-19T05:20:19.186Z,101610.34
2019-03-19T05:22:44.972Z,101618.03
2019-03-19T05:25:11.117Z,101614.09
2019-03-19T05:27:38.013Z,101625.77
2019-03-19T05:30:07.835Z,101623.83
2019-03-19T05:32:33.795Z,101628.80
2019-03-19T05:34:59.750Z,101618.91
2019-03-19T05:37:25.700Z,101622.14
2019-03-19T05:39:51.869Z,101625.38
2019-03-19T05:42:17.812Z,101627.52
2019-03-19T05:44:43.725Z,101642.55
2019-03-19T05:47:09.619Z,101626.85
2019-03-19T05:49:35.537Z,101629.53
2019-03-19T05:52:01.572Z,101639.20
2019-03-19T05:54:27.562Z,101639.20
2019-03-19T05:56:53.407Z,101635.00
2019-03-19T05:59:19.410Z,101634.31
2019-03-19T06:01:45.349Z,101639.47
2019-03-19T06:04:11.430Z,101642.76
2019-03-19T06:06:37.515Z,101651.47
2019-03-19T06:09:05.813Z,101658.90
2019-03-19T06:11:31.801Z,101651.58
2019-03-19T06:13:57.802Z,101659.73
2019-03-19T06:16:23.705Z,101666.77
2019-03-19T06:18:49.703Z,101668.88
2019-03-19T06:21:15.804Z,101663.30
2019-03-19T06:23:41.703Z,101669.23
2019-03-19T06:26:07.815Z,101668.52
2019-03-19T06:28:35.626Z,101673.36
2019-03-19T06:31:01.527Z,101673.23
2019-03-19T06:33:27.477Z,101668.14
2019-03-19T06:35:53.655Z,101668.14
2019-03-19T06:38:19.557Z,101666.77
2019-03-19T06:40:45.582Z,101673.39
2019-03-19T06:43:11.761Z,101673.78
2019-03-19T06:45:37.635Z,101675.25
2019-03-19T06:48:03.655Z,101674.19
2019-03-19T06:50:29.702Z,101679.30
2019-03-19T06:52:55.639Z,101683.30
2019-03-19T06:55:21.511Z,101686.06
2019-03-19T06:57:47.468Z,101684.29
2019-03-19T07:00:19.340Z,101683.67
2019-03-19T07:02:45.571Z,101690.14
2019-03-19T07:05:12.034Z,101694.31
2019-03-19T07:07:38.043Z,101693.45
2019-03-19T07:10:12.601Z,101700.21
2019-03-19T07:12:38.930Z,101711.80
2019-03-19T07:15:08.355Z,101713.45
2019-03-19T07:17:34.361Z,101715.98
2019-03-19T07:20:00.489Z,101705.20
2019-03-19T07:22:26.457Z,101710.34
2019-03-19T07:24:52.428Z,101708.09
2019-03-19T07:27:18.603Z,101708.99
2019-03-19T07:29:44.683Z,101714.22
2019-03-19T07:32:10.500Z,101712.89
2019-03-19T07:34:36.564Z,101716.88
2019-03-19T07:37:02.488Z,101712.60
2019-03-19T07:39:28.835Z,101715.48
2019-03-19T07:41:54.660Z,101711.23
2019-03-19T07:44:20.719Z,101715.44
2019-03-19T07:46:46.896Z,101714.73
2019-03-19T07:49:12.741Z,101718.30
2019-03-19T07:51:38.754Z,101718.33
2019-03-19T07:54:04.856Z,101718.47
2019-03-19T07:56:30.707Z,101724.58
2019-03-19T07:58:56.655Z,101728.55
2019-03-19T08:01:24.680Z,101727.00
2019-03-19T08:03:50.667Z,101728.08
2019-03-19T08:06:16.557Z,101723.67
2019-03-19T08:08:42.445Z,101723.67
2019-03-19T08:11:08.311Z,101730.00
2019-03-19T08:13:34.114Z,101731.10
2019-03-19T08:16:00.118Z,101725.41
2019-03-19T08:18:26.114Z,101735.73
2019-03-19T08:20:52.156Z,101729.35
2019-03-19T08:23:17.957Z,101730.00
2019-03-19T08:25:43.777Z,101727.73
2019-03-19T08:28:09.791Z,101730.14
2019-03-19T08:30:35.682Z,101729.80
2019-03-19T08:33:01.730Z,101739.05
2019-03-19T08:35:27.595Z,101739.49
2019-03-19T08:37:53.394Z,101739.17
2019-03-19T08:40:19.869Z,101732.45
2019-03-19T08:42:46.011Z,101738.33
2019-03-19T08:45:15.845Z,101735.03
2019-03-19T08:47:41.656Z,101736.11
2019-03-19T08:50:11.033Z,101737.23
2019-03-19T08:52:37.072Z,101728.98
2019-03-19T08:55:04.208Z,101728.98
2019-03-19T08:57:30.091Z,101750.29
2019-03-19T08:59:57.207Z,101747.42
2019-03-19T09:02:23.194Z,101737.80
2019-03-19T09:04:49.165Z,101741.95
2019-03-19T09:07:15.137Z,101749.05
2019-03-19T09:09:41.133Z,101740.52
2019-03-19T09:12:07.107Z,101728.94
2019-03-19T09:14:33.176Z,101720.41
2019-03-19T09:16:59.199Z,101722.45
2019-03-19T09:19:25.104Z,101717.13
2019-03-19T09:21:51.173Z,101726.19
2019-03-19T09:24:17.319Z,101710.05
2019-03-19T09:26:43.514Z,101749.14
2019-03-19T09:29:16.924Z,101742.61
2019-03-19T09:31:37.763Z,101735.95
2019-03-19T09:34:03.755Z,101742.58
2019-03-19T09:36:29.761Z,101743.66
2019-03-19T09:38:55.673Z,101758.83
2019-03-19T09:41:21.703Z,101741.42
2019-03-19T09:43:47.676Z,101738.41
2019-03-19T09:46:13.566Z,101746.34
2019-03-19T09:48:39.566Z,101760.59
2019-03-19T09:51:05.654Z,101743.77
2019-03-19T09:53:31.728Z,101749.23
2019-03-19T09:55:57.637Z,101752.96
2019-03-19T09:58:23.453Z,101752.63
2019-03-19T10:00:49.279Z,101754.84
2019-03-19T10:03:15.090Z,101746.86
2019-03-19T10:05:41.044Z,101784.95
2019-03-19T10:08:06.938Z,101792.95
2019-03-19T10:10:32.884Z,101791.52
2019-03-19T10:12:58.822Z,101789.02
2019-03-19T10:15:24.702Z,101776.11
2019-03-19T10:17:50.647Z,101779.36
2019-03-19T10:20:20.889Z,101790.27
2019-03-19T10:22:46.819Z,101793.04
2019-03-19T10:25:13.940Z,101786.66
2019-03-19T10:27:39.992Z,101786.34
2019-03-19T10:30:12.361Z,101756.81
2019-03-19T10:32:38.410Z,101765.61
2019-03-19T10:35:05.184Z,101746.58
2019-03-19T10:37:31.263Z,101747.23
2019-03-19T10:39:57.185Z,101747.70
2019-03-19T10:42:23.123Z,101750.49
2019-03-19T10:44:49.079Z,101753.90
2019-03-19T10:47:14.887Z,101737.41
2019-03-19T10:49:40.943Z,101743.97
2019-03-19T10:52:06.887Z,101751.73
2019-03-19T10:54:32.890Z,101758.73
2019-03-19T10:56:58.851Z,101741.30
2019-03-19T10:59:24.727Z,101743.67
2019-03-19T11:01:51.609Z,101728.23
2019-03-19T11:04:17.636Z,101728.23
2019-03-19T11:06:43.461Z,101735.34
2019-03-19T11:09:09.305Z,101741.06
2019-03-19T11:11:35.117Z,101770.45
2019-03-19T11:14:01.175Z,101773.68
2019-03-19T11:16:27.219Z,101777.34
2019-03-19T11:18:53.181Z,101785.31
2019-03-19T11:21:19.401Z,101782.17
2019-03-19T11:23:45.385Z,101788.78
2019-03-19T11:26:11.725Z,101783.31
2019-03-19T11:28:37.675Z,101790.91
2019-03-19T11:31:03.748Z,101799.23
2019-03-19T11:33:29.819Z,101796.82
2019-03-19T11:35:55.724Z,101788.05
2019-03-19T11:38:21.586Z,101766.50
2019-03-19T11:40:47.468Z,101744.21
2019-03-19T11:43:13.255Z,101758.80
2019-03-19T11:45:39.074Z,101748.39
2019-03-19T11:48:04.925Z,101739.81
2019-03-19T11:50:33.231Z,101747.78
2019-03-19T11:52:58.946Z,101746.43
2019-03-19T11:55:25.056Z,101752.46
2019-03-19T11:57:51.414Z,101771.98
2019-03-19T12:00:29.971Z,101780.61
2019-03-19T12:02:56.350Z,101771.98
2019-03-19T12:05:22.572Z,101762.50
2019-03-19T12:07:48.523Z,101759.91
2019-03-19T12:10:14.458Z,101753.52
2019-03-19T12:12:40.417Z,101746.57
2019-03-19T12:15:09.182Z,101753.59
2019-03-19T12:17:35.133Z,101774.32
2019-03-19T12:20:01.157Z,101777.38
2019-03-19T12:22:26.996Z,101777.20
2019-03-19T12:24:52.829Z,101781.38
2019-03-19T12:27:18.640Z,101784.19
2019-03-19T12:29:44.654Z,101774.86
2019-03-19T12:32:10.541Z,101771.17
2019-03-19T12:34:36.435Z,101775.11
2019-03-19T12:37:03.044Z,101775.19
2019-03-19T12:39:28.853Z,101770.33
2019-03-19T12:41:54.777Z,101767.41
2019-03-19T12:44:20.913Z,101722.03
2019-03-19T12:46:47.129Z,101722.03
2019-03-19T12:49:13.126Z,101732.55
2019-03-19T12:51:39.104Z,101737.81
2019-03-19T12:54:05.071Z,101751.52
2019-03-19T12:56:31.020Z,101757.20
2019-03-19T12:58:56.959Z,101743.86
2019-03-19T13:01:22.837Z,101743.86
2019-03-19T13:03:48.961Z,101755.45
2019-03-19T13:06:14.782Z,101758.13
2019-03-19T13:08:40.806Z,101755.50
2019-03-19T13:11:06.714Z,101766.11
2019-03-19T13:13:32.567Z,101750.06
2019-03-19T13:15:58.715Z,101749.92
2019-03-19T13:18:24.544Z,101763.75
2019-03-19T13:20:50.675Z,101770.98
2019-03-19T13:23:16.676Z,101766.33
2019-03-19T13:25:42.931Z,101761.45
2019-03-19T13:28:08.945Z,101768.74
2019-03-19T13:30:44.554Z,101763.75
2019-03-19T13:33:03.121Z,101764.53
2019-03-19T13:35:29.339Z,101758.09
2019-03-19T13:37:55.358Z,101759.49
2019-03-19T13:40:21.721Z,101758.83
2019-03-19T13:42:47.717Z,101755.70
2019-03-19T13:45:21.929Z,101752.95
2019-03-19T13:47:47.962Z,101752.95
2019-03-19T13:50:17.957Z,101752.89
2019-03-19T13:52:44.133Z,101754.89
2019-03-19T13:55:13.150Z,101751.03
2019-03-19T13:57:39.084Z,101757.34
2019-03-19T14:00:10.785Z,101751.45
2019-03-19T14:02:36.706Z,101760.98
2019-03-19T14:05:05.329Z,101761.08
2019-03-19T14:07:31.213Z,101764.89
2019-03-19T14:09:57.152Z,101759.45
2019-03-19T14:12:23.029Z,101753.30
2019-03-19T14:14:48.868Z,101754.18
2019-03-19T14:17:14.776Z,101758.72
2019-03-19T14:19:40.736Z,101749.36
2019-03-19T14:22:06.796Z,101751.68
2019-03-19T14:24:32.679Z,101757.57
2019-03-19T14:26:58.472Z,101756.59
2019-03-19T14:29:24.411Z,101747.21
2019-03-19T14:31:50.361Z,101747.20
2019-03-19T14:34:16.344Z,101748.52
2019-03-19T14:36:42.301Z,101740.35
2019-03-19T14:39:08.329Z,101735.86
2019-03-19T14:41:34.360Z,101738.52
2019-03-19T14:44:00.280Z,101734.08
2019-03-19T14:46:26.190Z,101737.83
2019-03-19T14:48:52.389Z,101740.41
2019-03-19T14:51:18.301Z,101734.90
2019-03-19T14:53:44.468Z,101727.12
2019-03-19T14:56:10.349Z,101728.77
2019-03-19T14:58:36.304Z,101733.17
2019-03-19T15:01:02.521Z,101734.77
2019-03-19T15:03:28.429Z,101735.19
2019-03-19T15:05:54.200Z,101735.67
2019-03-19T15:08:20.227Z,101739.39
2019-03-19T15:10:46.480Z,101738.90
2019-03-19T15:13:12.399Z,101740.67
2019-03-19T15:15:38.361Z,101746.65
2019-03-19T15:18:04.464Z,101746.04
2019-03-19T15:20:30.480Z,101740.55
2019-03-19T15:22:56.721Z,101741.63
2019-03-19T15:25:22.575Z,101742.01
2019-03-19T15:27:48.628Z,101737.20
2019-03-19T15:30:17.209Z,101738.73
2019-03-19T15:32:43.720Z,101735.77
2019-03-19T15:35:10.352Z,101744.12
2019-03-19T15:37:36.828Z,101741.14
2019-03-19T15:40:08.623Z,101745.98
2019-03-19T15:42:34.391Z,101747.17
2019-03-19T15:45:00.359Z,101738.42
2019-03-19T15:47:26.403Z,101739.75
2019-03-19T15:49:52.244Z,101746.98
2019-03-19T15:52:18.213Z,101750.21
2019-03-19T15:54:44.347Z,101757.45
2019-03-19T15:57:10.184Z,101758.53
2019-03-19T15:59:35.982Z,101762.40
2019-03-19T16:02:01.847Z,101766.95
2019-03-19T16:04:27.829Z,101772.52
2019-03-19T16:06:53.932Z,101774.70
2019-03-19T16:09:19.854Z,101773.01
2019-03-19T16:11:45.783Z,101775.80
2019-03-19T16:14:11.844Z,101777.81
2019-03-19T16:16:37.789Z,101777.33
2019-03-19T16:19:03.773Z,101785.88
2019-03-19T16:21:29.709Z,101780.13
2019-03-19T16:23:55.729Z,101782.66
2019-03-19T16:26:21.768Z,101785.95
2019-03-19T16:28:47.615Z,101797.50
2019-03-19T16:31:13.397Z,101792.55
2019-03-19T16:33:39.457Z,101792.69
2019-03-19T16:36:05.449Z,101798.73
2019-03-19T16:38:33.510Z,101797.05
2019-03-19T16:40:59.545Z,101801.34
2019-03-19T16:43:25.545Z,101796.93
2019-03-19T16:45:51.455Z,101801.81
2019-03-19T16:48:17.496Z,101798.06
2019-03-19T16:50:43.419Z,101811.52
2019-03-19T16:53:09.421Z,101804.41
2019-03-19T16:55:35.500Z,101807.75
2019-03-19T16:58:01.423Z,101807.70
2019-03-19T17:00:28.018Z,101809.63
2019-03-19T17:02:53.828Z,101819.38
2019-03-19T17:05:19.993Z,101817.02
2019-03-19T17:07:46.021Z,101827.23
2019-03-19T17:10:14.002Z,101821.41
2019-03-19T17:12:42.047Z,101825.15
2019-03-19T17:15:13.046Z,101825.70
2019-03-19T17:17:38.919Z,101824.66
2019-03-19T17:20:08.371Z,101833.47
2019-03-19T17:22:34.367Z,101838.40
2019-03-19T17:25:01.808Z,101841.41
2019-03-19T17:27:27.773Z,101840.92
2019-03-19T17:29:53.768Z,101847.00
2019-03-19T17:32:19.760Z,101845.03
2019-03-19T17:34:45.821Z,101846.50
2019-03-19T17:37:12.053Z,101848.81
2019-03-19T17:39:37.979Z,101857.32
2019-03-19T17:42:04.107Z,101858.04
2019-03-19T17:44:30.308Z,101852.19
2019-03-19T17:46:56.214Z,101863.27
2019-03-19T17:49:22.030Z,101865.28
2019-03-19T17:51:47.913Z,101875.80
2019-03-19T17:54:13.863Z,101873.58
2019-03-19T17:56:39.679Z,101877.13
2019-03-19T17:59:05.749Z,101888.09
2019-03-19T18:01:31.802Z,101880.79
2019-03-19T18:03:57.839Z,101879.77
2019-03-19T18:06:23.609Z,101881.23
2019-03-19T18:08:49.673Z,101889.21
2019-03-19T18:11:15.743Z,101885.55
2019-03-19T18:13:41.721Z,101894.48
2019-03-19T18:16:07.810Z,101891.08
2019-03-19T18:18:33.787Z,101894.28
2019-03-19T18:20:59.836Z,101894.28
2019-03-19T18:23:26.029Z,101901.10
2019-03-19T18:25:52.060Z,101901.55
2019-03-19T18:28:18.091Z,101902.96
2019-03-19T18:30:44.261Z,101904.45
2019-03-19T18:33:10.291Z,101909.70
2019-03-19T18:35:36.264Z,101907.18
2019-03-19T18:38:02.241Z,101921.41
2019-03-19T18:40:28.204Z,101920.31
2019-03-19T18:42:54.173Z,101926.22
2019-03-19T18:45:20.750Z,101927.36
2019-03-19T18:47:46.592Z,101929.16
2019-03-19T18:50:17.213Z,101934.55
2019-03-19T18:52:43.280Z,101942.40
2019-03-19T18:55:09.279Z,101948.41
2019-03-19T18:57:35.457Z,101947.14
2019-03-19T19:00:01.605Z,101949.73
2019-03-19T19:02:27.607Z,101950.27
2019-03-19T19:04:53.771Z,101958.30
2019-03-19T19:07:19.821Z,101960.58
2019-03-19T19:09:46.119Z,101958.63
2019-03-19T19:12:12.164Z,101967.42
2019-03-19T19:14:38.499Z,101964.08
2019-03-19T19:17:04.592Z,101967.01
2019-03-19T19:19:30.556Z,101974.72
2019-03-19T19:21:56.381Z,101972.86
2019-03-19T19:24:22.433Z,101970.83
2019-03-19T19:26:48.296Z,101971.95
2019-03-19T19:29:14.316Z,101982.61
2019-03-19T19:31:40.510Z,101979.57
2019-03-19T19:34:06.424Z,101982.89
2019-03-19T19:36:32.272Z,101981.76
2019-03-19T19:38:58.379Z,101984.33
2019-03-19T19:41:24.252Z,101989.86
2019-03-19T19:43:50.126Z,101989.97
2019-03-19T19:46:16.154Z,101989.12
2019-03-19T19:48:42.110Z,101986.86
2019-03-19T19:51:08.097Z,101989.13
2019-03-19T19:53:34.199Z,101986.66
2019-03-19T19:56:00.464Z,101988.36
2019-03-19T19:58:26.375Z,101992.87
2019-03-19T20:00:52.305Z,101997.39
2019-03-19T20:03:18.225Z,102010.05
2019-03-19T20:05:44.238Z,102011.35
2019-03-19T20:08:10.229Z,102009.81
2019-03-19T20:10:37.877Z,102002.66
2019-03-19T20:13:04.293Z,101997.61
2019-03-19T20:15:30.217Z,101995.73
2019-03-19T20:17:56.267Z,101993.82
2019-03-19T20:20:25.420Z,101994.58
2019-03-19T20:22:51.371Z,102005.82
2019-03-19T20:25:17.436Z,102002.71
2019-03-19T20:27:43.543Z,102007.95
2019-03-19T20:30:20.468Z,102016.80
2019-03-19T20:32:46.716Z,102017.89
2019-03-19T20:35:12.713Z,102024.39
2019-03-19T20:37:38.848Z,102023.94
2019-03-19T20:40:11.183Z,102030.05
2019-03-19T20:42:37.130Z,102037.53
2019-03-19T20:45:11.741Z,102041.70
2019-03-19T20:47:37.689Z,102042.59
2019-03-19T20:50:09.788Z,102047.25
2019-03-19T20:52:36.088Z,102047.20
2019-03-19T20:55:02.635Z,102050.42
2019-03-19T20:57:28.716Z,102048.88
2019-03-19T20:59:54.996Z,102050.61
2019-03-19T21:02:21.098Z,102057.39
2019-03-19T21:04:49.895Z,102056.77
2019-03-19T21:07:17.050Z,102052.06
2019-03-19T21:09:42.985Z,102061.52
2019-03-19T21:12:08.866Z,102063.80
2019-03-19T21:14:34.866Z,102070.59
2019-03-19T21:17:00.909Z,102069.23
2019-03-19T21:19:26.918Z,102082.69
2019-03-19T21:21:52.767Z,102071.17
2019-03-19T21:24:18.682Z,102073.19
2019-03-19T21:26:44.710Z,102085.16
2019-03-19T21:29:10.939Z,102085.16
2019-03-19T21:31:37.145Z,102091.80
2019-03-19T21:34:02.993Z,102093.11
2019-03-19T21:36:28.982Z,102096.20
2019-03-19T21:38:55.108Z,102097.08
2019-03-19T21:41:21.074Z,102097.55
2019-03-19T21:43:47.139Z,102101.22
2019-03-19T21:46:13.454Z,102101.52
2019-03-19T21:48:39.538Z,102100.80
2019-03-19T21:51:05.539Z,102093.53
2019-03-19T21:53:31.684Z,102095.72
2019-03-19T21:55:57.748Z,102097.04
2019-03-19T21:58:23.751Z,102099.25
2019-03-19T22:00:49.777Z,102097.63
2019-03-19T22:03:15.783Z,102108.58
2019-03-19T22:05:41.773Z,102117.24
2019-03-19T22:08:07.720Z,102117.02
2019-03-19T22:10:33.718Z,102114.56
2019-03-19T22:12:59.560Z,102118.69
2019-03-19T22:15:25.525Z,102124.39
2019-03-19T22:17:51.701Z,102129.99
2019-03-19T22:20:17.536Z,102125.23
2019-03-19T22:22:43.532Z,102131.04
2019-03-19T22:25:11.298Z,102131.14
2019-03-19T22:27:37.252Z,102130.69
2019-03-19T22:30:12.474Z,102123.11
2019-03-19T22:32:38.720Z,102131.08
2019-03-19T22:35:05.462Z,102127.75
2019-03-19T22:37:31.754Z,102125.13
2019-03-19T22:39:59.890Z,102128.76
2019-03-19T22:42:25.754Z,102130.91
2019-03-19T22:44:51.568Z,102129.98
2019-03-19T22:47:17.516Z,102131.67
2019-03-19T22:49:43.747Z,102127.11
2019-03-19T22:52:10.071Z,102132.23
2019-03-19T22:54:37.014Z,102140.97
2019-03-19T22:57:03.441Z,102144.66
2019-03-19T22:59:29.530Z,102149.51
2019-03-19T23:01:55.744Z,102149.69
2019-03-19T23:04:27.218Z,102154.45
2019-03-19T23:06:50.370Z,102156.72
2019-03-19T23:09:16.551Z,102156.13
2019-03-19T23:11:42.467Z,102163.30
2019-03-19T23:14:08.564Z,102163.59
2019-03-19T23:16:34.444Z,102169.58
2019-03-19T23:19:00.521Z,102164.05
2019-03-19T23:21:26.955Z,102170.00
2019-03-19T23:23:53.032Z,102177.00
2019-03-19T23:26:18.920Z,102182.09
2019-03-19T23:28:44.888Z,102186.20
2019-03-19T23:31:10.944Z,102171.12
2019-03-19T23:33:36.932Z,102171.08
2019-03-19T23:36:03.107Z,102179.16
2019-03-19T23:38:29.026Z,102177.54
2019-03-19T23:40:54.979Z,102183.20
2019-03-19T23:43:21.002Z,102181.80
2019-03-19T23:45:46.938Z,102184.84
2019-03-19T23:48:12.758Z,102181.78
2019-03-19T23:50:38.740Z,102180.52
2019-03-19T23:53:04.921Z,102181.21
2019-03-19T23:55:30.916Z,102184.12
2019-03-19T23:57:56.914Z,102180.91
